createdAt,value
2018-08-13T00:03:10.963Z,50.70
2018-08-13T00:07:05.023Z,51.20
2018-08-13T00:11:10.092Z,52.00
2018-08-13T00:15:05.294Z,52.60
2018-08-13T00:18:59.298Z,52.50
2018-08-13T00:22:53.350Z,52.20
2018-08-13T00:26:49.639Z,51.90
2018-08-13T00:30:43.698Z,51.50
2018-08-13T00:34:37.652Z,51.40
2018-08-13T00:38:31.622Z,51.20
2018-08-13T00:42:25.639Z,51.20
2018-08-13T00:46:20.260Z,50.80
2018-08-13T00:50:15.214Z,50.70
2018-08-13T00:54:09.152Z,50.50
2018-08-13T00:58:03.187Z,50.70
2018-08-13T01:01:57.344Z,50.90
2018-08-13T01:05:51.476Z,51.10
2018-08-13T01:09:45.520Z,51.40
2018-08-13T01:13:39.548Z,51.00
2018-08-13T01:17:33.580Z,51.80
2018-08-13T01:21:27.501Z,52.00
2018-08-13T01:25:21.553Z,51.90
2018-08-13T01:29:15.690Z,52.40
2018-08-13T01:33:09.746Z,53.00
2018-08-13T01:37:03.851Z,53.60
2018-08-13T01:40:57.993Z,53.90
2018-08-13T01:44:52.083Z,54.30
2018-08-13T01:48:46.140Z,54.70
2018-08-13T01:52:40.825Z,55.20
2018-08-13T01:56:34.787Z,55.60
2018-08-13T02:00:30.927Z,56.50
2018-08-13T02:04:25.056Z,57.30
2018-08-13T02:08:19.113Z,57.00
2018-08-13T02:12:13.430Z,56.90
2018-08-13T02:16:09.540Z,57.00
2018-08-13T02:20:04.603Z,56.30
2018-08-13T02:23:58.562Z,56.00
2018-08-13T02:27:52.734Z,55.80
2018-08-13T02:31:47.126Z,55.60
2018-08-13T02:35:41.185Z,55.00
2018-08-13T02:39:35.501Z,54.90
2018-08-13T02:43:29.498Z,54.60
2018-08-13T02:47:23.751Z,54.80
2018-08-13T02:51:17.696Z,54.80
2018-08-13T02:55:12.255Z,54.20
2018-08-13T02:59:07.067Z,54.00
2018-08-13T03:03:01.190Z,54.20
2018-08-13T03:11:00.761Z,56.30
2018-08-13T03:14:54.868Z,56.50
2018-08-13T03:18:51.060Z,57.50
2018-08-13T03:22:45.134Z,58.00
2018-08-13T03:26:39.866Z,58.10
2018-08-13T03:30:33.840Z,57.70
2018-08-13T03:34:27.841Z,57.80
2018-08-13T03:38:21.887Z,58.00
2018-08-13T03:42:16.096Z,58.30
2018-08-13T03:46:10.135Z,58.40
2018-08-13T03:50:08.403Z,58.40
2018-08-13T03:54:02.408Z,59.20
2018-08-13T03:57:56.637Z,60.50
2018-08-13T04:01:50.562Z,61.00
2018-08-13T04:05:44.874Z,60.80
2018-08-13T04:09:45.991Z,59.10
2018-08-13T04:13:42.664Z,58.00
2018-08-13T04:17:37.762Z,58.00
2018-08-13T04:21:32.197Z,58.50
2018-08-13T04:25:27.157Z,58.20
2018-08-13T04:29:21.193Z,57.90
2018-08-13T04:33:15.182Z,60.70
2018-08-13T04:37:10.083Z,65.50
2018-08-13T04:41:04.280Z,67.10
2018-08-13T04:44:58.652Z,69.10
2018-08-13T04:48:53.202Z,74.70
2018-08-13T04:52:47.567Z,79.80
2018-08-13T04:56:41.873Z,87.00
2018-08-13T05:00:35.870Z,90.60
2018-08-13T05:04:29.947Z,92.10
2018-08-13T05:08:24.134Z,94.30
2018-08-13T05:12:18.232Z,95.00
2018-08-13T05:16:12.189Z,96.80
2018-08-13T05:20:07.044Z,97.60
2018-08-13T05:24:01.355Z,99.00
2018-08-13T05:27:55.297Z,99.00
2018-08-13T05:31:49.412Z,99.90
2018-08-13T05:35:43.472Z,99.70
2018-08-13T05:39:38.348Z,99.90
2018-08-13T05:43:32.533Z,99.90
2018-08-13T05:47:26.534Z,99.90
2018-08-13T05:51:20.762Z,99.90
2018-08-13T05:55:15.093Z,99.90
2018-08-13T05:59:09.180Z,99.90
2018-08-13T06:03:03.205Z,99.90
2018-08-13T06:06:57.287Z,99.90
2018-08-13T06:10:51.878Z,99.90
2018-08-13T06:14:45.938Z,99.90
2018-08-13T06:18:39.875Z,99.90
2018-08-13T06:22:34.116Z,99.90
2018-08-13T06:26:28.356Z,99.90
2018-08-13T06:30:23.704Z,99.90
2018-08-13T06:34:18.416Z,99.90
2018-08-13T06:38:12.888Z,99.90
2018-08-13T06:42:07.115Z,99.90
2018-08-13T06:46:01.085Z,99.90
2018-08-13T06:49:55.009Z,99.90
2018-08-13T06:53:50.167Z,99.90
2018-08-13T06:57:44.373Z,99.90
2018-08-13T07:01:38.318Z,99.90
2018-08-13T07:05:32.427Z,99.90
2018-08-13T07:09:26.430Z,99.90
2018-08-13T07:13:20.488Z,99.90
2018-08-13T07:17:16.192Z,99.90
2018-08-13T07:21:10.381Z,99.90
2018-08-13T07:25:10.066Z,99.90
2018-08-13T07:29:05.300Z,99.90
2018-08-13T07:32:59.465Z,99.90
2018-08-13T07:36:53.980Z,99.90
2018-08-13T07:40:47.603Z,99.90
2018-08-13T07:44:42.088Z,99.90
2018-08-13T07:48:36.071Z,99.90
2018-08-13T07:52:30.154Z,99.90
2018-08-13T07:56:24.203Z,99.90
2018-08-13T08:00:19.260Z,99.90
2018-08-13T08:04:13.630Z,99.90
2018-08-13T08:08:08.327Z,99.90
2018-08-13T08:12:02.434Z,99.90
2018-08-13T08:15:56.451Z,99.90
2018-08-13T08:19:50.530Z,99.90
2018-08-13T08:23:44.461Z,99.90
2018-08-13T08:27:39.339Z,99.90
2018-08-13T08:31:38.346Z,99.90
2018-08-13T08:35:33.287Z,99.90
2018-08-13T08:39:26.782Z,99.70
2018-08-13T08:43:20.296Z,99.40
2018-08-13T08:47:16.164Z,99.10
2018-08-13T08:51:10.774Z,99.10
2018-08-13T08:55:06.906Z,99.10
2018-08-13T08:59:01.164Z,99.00
2018-08-13T09:02:55.338Z,99.80
2018-08-13T09:06:49.544Z,99.90
2018-08-13T09:10:43.678Z,99.90
2018-08-13T09:14:37.728Z,99.90
2018-08-13T09:18:43.718Z,99.60
2018-08-13T09:22:49.160Z,99.10
2018-08-13T09:26:54.891Z,98.20
2018-08-13T09:33:06.243Z,97.30
2018-08-13T09:36:59.871Z,96.50
2018-08-13T09:40:54.203Z,96.60
2018-08-13T09:44:47.700Z,96.60
2018-08-13T09:48:41.258Z,96.00
2018-08-13T09:52:34.703Z,95.90
2018-08-13T09:56:31.961Z,96.20
2018-08-13T10:00:32.535Z,96.70
2018-08-13T10:04:26.674Z,97.50
2018-08-13T10:08:20.291Z,97.90
2018-08-13T10:12:14.394Z,97.80
2018-08-13T10:16:08.891Z,97.50
2018-08-13T10:20:03.469Z,97.30
2018-08-13T10:23:57.581Z,97.30
2018-08-13T10:27:52.815Z,96.70
2018-08-13T10:31:46.971Z,95.80
2018-08-13T10:35:42.073Z,95.20
2018-08-13T10:39:38.132Z,95.30
2018-08-13T10:43:32.809Z,95.00
2018-08-13T10:47:26.872Z,94.80
2018-08-13T10:51:21.214Z,94.70
2018-08-13T10:55:16.864Z,94.50
2018-08-13T10:59:11.356Z,94.90
2018-08-13T11:03:05.468Z,94.90
2018-08-13T11:07:00.256Z,94.80
2018-08-13T11:10:54.476Z,95.10
2018-08-13T11:14:49.951Z,94.30
2018-08-13T11:18:45.295Z,93.70
2018-08-13T11:22:41.433Z,93.30
2018-08-13T11:26:35.507Z,92.80
2018-08-13T11:30:29.818Z,92.20
2018-08-13T11:34:24.020Z,91.60
2018-08-13T11:38:18.128Z,91.30
2018-08-13T11:42:14.567Z,91.40
2018-08-13T11:46:09.027Z,92.20
2018-08-13T11:50:03.148Z,92.70
2018-08-13T11:53:57.556Z,92.60
2018-08-13T11:57:51.787Z,92.70
2018-08-13T12:01:46.668Z,92.50
2018-08-13T12:05:40.870Z,91.70
2018-08-13T12:09:35.726Z,91.40
2018-08-13T12:13:30.303Z,91.60
2018-08-13T12:17:24.656Z,91.50
2018-08-13T12:21:19.023Z,91.80
2018-08-13T12:25:19.587Z,92.00
2018-08-13T12:29:13.741Z,92.20
2018-08-13T12:33:07.797Z,92.70
2018-08-13T12:37:07.985Z,93.50
2018-08-13T12:41:02.099Z,97.30
2018-08-13T12:44:57.162Z,99.70
2018-08-13T12:48:51.499Z,99.90
2018-08-13T12:52:48.651Z,99.90
2018-08-13T12:56:43.451Z,99.90
2018-08-13T13:00:37.678Z,99.90
2018-08-13T13:04:31.862Z,99.90
2018-08-13T13:08:26.890Z,99.90
2018-08-13T13:12:21.127Z,99.90
2018-08-13T13:16:15.379Z,99.90
2018-08-13T13:20:11.462Z,99.90
2018-08-13T13:24:05.791Z,99.90
2018-08-13T13:27:59.931Z,99.90
2018-08-13T13:31:54.111Z,99.90
2018-08-13T13:35:49.858Z,99.90
2018-08-13T13:39:43.798Z,99.60
2018-08-13T13:43:37.858Z,98.80
2018-08-13T13:47:32.237Z,98.40
2018-08-13T13:51:26.233Z,98.80
2018-08-13T13:55:20.365Z,98.80
2018-08-13T13:59:14.519Z,98.70
2018-08-13T14:03:08.963Z,98.60
2018-08-13T14:07:03.376Z,98.40
2018-08-13T14:11:01.744Z,99.60
2018-08-13T14:15:05.084Z,99.90
2018-08-13T14:19:04.295Z,99.90
2018-08-13T14:23:02.392Z,99.90
2018-08-13T14:27:20.445Z,99.90
2018-08-13T14:31:31.890Z,99.90
2018-08-13T14:35:44.949Z,99.90
2018-08-13T14:39:45.183Z,99.90
2018-08-13T14:43:43.046Z,99.90
2018-08-13T14:47:43.081Z,99.90
2018-08-13T14:51:42.554Z,99.90
2018-08-13T14:55:42.474Z,99.90
2018-08-13T14:59:38.313Z,99.90
2018-08-13T15:08:12.860Z,99.90
2018-08-13T15:12:22.582Z,99.90
2018-08-13T15:16:26.103Z,99.90
2018-08-13T15:20:29.922Z,99.90
2018-08-13T15:24:34.937Z,99.90
2018-08-13T15:28:33.462Z,99.90
2018-08-13T15:32:31.932Z,99.90
2018-08-13T15:36:33.518Z,99.90
2018-08-13T15:44:51.593Z,99.90
2018-08-13T15:53:13.611Z,99.90
2018-08-13T16:01:15.094Z,99.90
2018-08-13T16:05:12.229Z,99.90
2018-08-13T16:13:46.746Z,99.90
2018-08-13T16:17:46.739Z,99.90
2018-08-13T16:21:46.406Z,99.90
2018-08-13T16:25:43.818Z,99.90
2018-08-13T16:29:42.757Z,99.90
2018-08-13T16:33:44.519Z,99.90
2018-08-13T16:37:44.370Z,99.90
2018-08-13T16:41:50.691Z,99.90
2018-08-13T16:50:00.522Z,99.90
2018-08-13T16:58:25.225Z,99.90
2018-08-13T17:10:45.003Z,99.90
2018-08-13T17:14:46.517Z,99.90
2018-08-13T17:19:03.234Z,99.90
2018-08-13T17:23:04.603Z,99.90
2018-08-13T17:26:58.863Z,99.90
2018-08-13T17:30:52.907Z,99.90
2018-08-13T17:34:46.983Z,99.90
2018-08-13T17:38:40.979Z,99.90
2018-08-13T17:42:35.893Z,99.90
2018-08-13T17:46:30.109Z,99.90
2018-08-13T17:50:24.638Z,99.90
2018-08-13T17:54:18.543Z,99.90
2018-08-13T17:58:12.890Z,99.90
2018-08-13T18:02:09.148Z,99.90
2018-08-13T18:06:12.501Z,99.90
2018-08-13T18:10:09.252Z,99.90
2018-08-13T18:14:03.371Z,99.90
2018-08-13T18:17:57.509Z,99.90
2018-08-13T18:21:51.615Z,99.90
2018-08-13T18:25:45.759Z,99.90
2018-08-13T18:29:39.914Z,99.90
2018-08-13T18:33:33.963Z,99.90
2018-08-13T18:37:28.245Z,99.90
2018-08-13T18:41:22.729Z,99.90
2018-08-13T18:45:16.794Z,99.90
2018-08-13T18:49:10.803Z,99.90
2018-08-13T18:53:05.247Z,99.90
2018-08-13T18:56:59.341Z,99.90
2018-08-13T19:00:54.324Z,99.90
2018-08-13T19:04:48.456Z,99.90
2018-08-13T19:08:42.651Z,99.90
2018-08-13T19:12:37.008Z,99.90
2018-08-13T19:16:31.174Z,99.90
2018-08-13T19:20:25.592Z,99.90
2018-08-13T19:24:23.273Z,99.90
2018-08-13T19:28:20.043Z,99.90
2018-08-13T19:32:15.106Z,99.90
2018-08-13T19:36:09.899Z,99.90
2018-08-13T19:40:04.946Z,99.90
2018-08-13T19:44:02.040Z,99.90
2018-08-13T19:47:56.725Z,99.90
2018-08-13T19:51:50.915Z,99.90
2018-08-13T19:55:45.006Z,99.90
2018-08-13T19:59:40.313Z,99.90
2018-08-13T20:03:36.400Z,99.90
2018-08-13T20:07:30.463Z,99.90
2018-08-13T20:11:24.664Z,99.90
2018-08-13T20:15:19.384Z,99.90
2018-08-13T20:19:14.364Z,99.90
2018-08-13T20:23:08.891Z,99.90
2018-08-13T20:27:03.288Z,99.90
2018-08-13T20:30:57.343Z,99.90
2018-08-13T20:34:51.712Z,99.90
2018-08-13T20:38:48.447Z,99.90
2018-08-13T20:42:45.630Z,99.90
2018-08-13T20:46:40.025Z,99.90
2018-08-13T20:50:34.515Z,99.90
2018-08-13T20:54:28.760Z,99.90
2018-08-13T20:58:23.047Z,99.90
2018-08-13T21:02:17.222Z,99.90
2018-08-13T21:06:11.516Z,99.90
2018-08-13T21:10:07.139Z,99.90
2018-08-13T21:14:04.120Z,99.90
2018-08-13T21:17:58.143Z,99.90
2018-08-13T21:21:53.448Z,99.90
2018-08-13T21:25:47.562Z,99.90
2018-08-13T21:29:42.190Z,99.90
2018-08-13T21:33:36.204Z,99.90
2018-08-13T21:37:30.753Z,99.90
2018-08-13T21:41:25.287Z,99.90
2018-08-13T21:45:20.348Z,99.90
2018-08-13T21:49:14.383Z,99.90
2018-08-13T21:53:09.801Z,99.90
2018-08-13T21:57:03.932Z,99.90
2018-08-13T22:01:04.120Z,99.90
2018-08-13T22:04:58.067Z,99.90
2018-08-13T22:08:52.098Z,99.90
2018-08-13T22:12:46.207Z,99.90
2018-08-13T22:16:40.432Z,99.90
2018-08-13T22:20:36.082Z,99.90
2018-08-13T22:24:41.151Z,99.90
2018-08-13T22:28:35.180Z,99.90
2018-08-13T22:32:30.499Z,99.90
2018-08-13T22:36:25.447Z,99.90
2018-08-13T22:40:20.513Z,99.90
2018-08-13T22:44:14.611Z,99.90
2018-08-13T22:48:08.704Z,99.90
2018-08-13T22:52:02.799Z,99.90
2018-08-13T22:55:56.927Z,99.90
2018-08-13T22:59:51.100Z,99.90
2018-08-13T23:03:45.239Z,99.90
2018-08-13T23:07:40.150Z,99.90
2018-08-13T23:11:34.138Z,99.90
2018-08-13T23:15:28.265Z,99.90
2018-08-13T23:19:22.387Z,99.90
2018-08-13T23:23:16.354Z,99.90
2018-08-13T23:27:10.314Z,99.90
2018-08-13T23:31:04.363Z,99.90
2018-08-13T23:34:58.361Z,99.90
2018-08-13T23:38:52.414Z,99.90
2018-08-13T23:42:46.474Z,99.90
2018-08-13T23:46:41.226Z,99.90
2018-08-13T23:50:35.450Z,99.90
2018-08-13T23:54:29.560Z,99.90
2018-08-13T23:58:23.876Z,99.90
